aviador You're here:

EPRZ Decoded Metar

RZESZOW in POLAND
Report Time2017-12-17 00:00:00
UTC Time2017-12-17 00:23:02
Flight Rules mvfr MVFR
Wind210° at 04 kt
W.Decomp.*RWY 27: 1.7 kt HW 3.6 kt LCW
W.Rank210° ranks 7
Current wind is below 210° avg. (8.2)
Visibility6000 m
Phenomena:N/A
Clouds:Broken 030 Hf
Overcast 041 Hf
Expected CloudBase > 1,200 ft AGL from Temp-Dew spread
Ceiling3,000 ft
Temp01°C (ISA -13)
Dew Point-2°C (81% RH)
AAT-2.7°C
QNH1012 hPa
Density Alt-771 ft
Elevation663 ft
Report Wrong Elevation
Raw Report
EPRZ 170000Z 21004KT 6000 BKN030 OVC041 01/M02 Q1012=

Extra information for EPRZ:More info

Metar Taf Metar & Taf Last 4 Metars F.Rules Stats Wind Profile Meteogram Temp Stats Airport Information Weather charts Add Link Nearby VenuesMetar ALERT Operation Metar Decoded Social comments